Flight Track Log - Related Links

Times and Time Zones

All times are in EDT time to prevent confusion due to time zone crossing. See the N431EH flight status page for this flight to view local times or setup timezone preferences in your user account.

Time Position Orientation Groundspeed Altitude Reporting Facility
EDT Latitude Longitude Course Direction KTS MPH feet Rate Location/Type
Thu 07:40:00 PM 42.9235 -114.0352 158° South  Level FlightAware Approximate
Thu 07:40:56 PM 43.0837 -114.0567 144° Southeast 425 489 24,800  Level FlightAware ADS-B (KBTF)
Thu 07:41:00 PM 42.8294 -113.9830 158° South  Level FlightAware Approximate
Thu 07:41:36 PM 43.0179 -113.9906 143° Southeast 441 507 26,300  Level FlightAware ADS-B (KBTF)
Thu 07:42:16 PM 42.9500 -113.9227 143° Southeast 460 529 27,000 525 Climbing FlightAware ADS-B (KBTF)
Thu 07:42:56 PM 42.8799 -113.8527 144° Southeast 480 552 27,000  Level FlightAware ADS-B (KBTF)
Thu 07:43:36 PM 42.8068 -113.7799 144° Southeast 481 554 27,000  Level FlightAware ADS-B (KBTF)
Thu 07:44:16 PM 42.7362 -113.7099 144° Southeast 479 551 27,000  Level FlightAware ADS-B (KBTF)
Thu 07:44:56 PM 42.6636 -113.6380 144° Southeast 478 550 27,000  Level FlightAware ADS-B (KBTF)
Thu 07:45:31 PM 42.6015 -113.5769 144° Southeast 476 548 27,000  Level FlightAware ADS-B
Thu 07:46:02 PM 42.5459 -113.5221 144° Southeast 477 549 27,000  Level FlightAware ADS-B
Thu 07:46:36 PM 42.4860 -113.4633 144° Southeast 476 548 27,000  Level FlightAware ADS-B (KBTF)
Thu 07:47:16 PM 42.4139 -113.3926 144° Southeast 478 550 27,000  Level FlightAware ADS-B (KBTF)
Thu 07:47:57 PM 42.3419 -113.3222 144° Southeast 480 552 27,000  Level FlightAware ADS-B (KBTF)
Thu 07:48:31 PM 42.2850 -113.2669 144° Southeast 480 552 27,000 -92 Level FlightAware ADS-B
Thu 07:49:02 PM 42.2254 -113.2089 144° Southeast 478 550 26,900 -537 Descending FlightAware ADS-B
Thu 07:49:38 PM 42.1604 -113.1458 144° Southeast 477 549 26,400 -1,083 Descending FlightAware ADS-B
Thu 07:50:14 PM 42.0945 -113.0822 144° Southeast 474 545 25,600 -1,273 Descending FlightAware ADS-B
Thu 07:50:44 PM 42.0442 -113.0336 144° Southeast 468 539 25,000 -1,238 Descending FlightAware ADS-B
Thu 07:51:17 PM 41.9858 -112.9773 144° Southeast 458 527 24,300 -1,364 Descending FlightAware ADS-B (KBTF)
Thu 07:51:50 PM 41.9319 -112.9256 144° Southeast 450 518 23,500 -1,385 Descending FlightAware ADS-B
Thu 07:52:22 PM 41.8744 -112.8705 144° Southeast 444 511 22,800 -1,333 Descending FlightAware ADS-B
Thu 07:52:53 PM 41.8236 -112.8219 144° Southeast 440 506 22,100 -1,479 Descending FlightAware ADS-B
Thu 07:53:35 PM 41.7549 -112.7564 145° Southeast 442 509 21,000 -1,562 Descending FlightAware ADS-B
Thu 07:54:06 PM 41.7026 -112.7057 142° Southeast 442 509 20,200 -1,610 Descending FlightAware ADS-B
Thu 07:54:16 PM 41.6867 -112.6876 137° Southeast 438 504 19,900 -1,714 Descending FlightAware ADS-B
Thu 07:54:48 PM 41.6398 -112.6287 136° Southeast 441 507 19,000 -1,645 Descending FlightAware ADS-B
Thu 07:55:18 PM 41.5958 -112.5722 136° Southeast 436 502 18,200 -1,588 Descending FlightAware ADS-B
Thu 07:55:56 PM 41.5423 -112.5041 138° Southeast 406 467 17,200 -1,241 Descending FlightAware ADS-B (KBTF)
Thu 07:56:16 PM 41.5126 -112.4732 144° Southeast 381 438 17,000 -235 Descending FlightAware ADS-B
Thu 07:56:47 PM 41.4668 -112.4338 151° Southeast 380 437 17,000  Level FlightAware ADS-B
Thu 07:57:17 PM 41.4208 -112.4009 152° Southeast 382 440 17,000 -290 Level FlightAware ADS-B (KBTF)
Thu 07:57:49 PM 41.3706 -112.3651 152° Southeast 386 444 16,700 -985 Descending FlightAware ADS-B
Thu 07:58:24 PM 41.3145 -112.3251 152° Southeast 384 442 15,900 -1,588 Descending FlightAware ADS-B
Thu 07:58:57 PM 41.2632 -112.2889 152° Southeast 383 441 14,900 -1,600 Descending FlightAware ADS-B (KBTF)
Thu 07:59:09 PM 41.2452 -112.2762 151° Southeast 371 427 14,700 -1,200 Descending FlightAware ADS-B
Thu 07:59:17 PM 41.2403 -112.2727 152° Southeast 376 433 14,500 -1,000 Descending FlightAware ADS-B
Thu 07:59:57 PM 41.1733 -112.2217 150° Southeast 372 428 13,900 -986 Descending FlightAware ADS-B (KBTF)
Thu 08:00:30 PM 41.1242 -112.1842 150° Southeast 371 427 13,300 -1,065 Descending FlightAware ADS-B
Thu 08:00:59 PM 41.0798 -112.1530 158° South 363 418 12,800 -1,021 Descending FlightAware ADS-B
Thu 08:01:17 PM 41.0517 -112.1430 169° South 348 400 12,500 -964 Descending FlightAware ADS-B (KBTF)
Thu 08:01:55 PM 40.9973 -112.1310 171° South 354 407 11,900 -957 Descending FlightAware ADS-B
Thu 08:02:26 PM 40.9415 -112.1189 171° South 353 406 11,400 -871 Descending FlightAware ADS-B
Thu 08:02:57 PM 40.8905 -112.1086 174° South 343 395 11,000 -369 Descending FlightAware ADS-B (KBTF)
Thu 08:03:31 PM 40.8395 -112.1029 175° South 294 338 11,000  Level FlightAware ADS-B
Thu 08:04:09 PM 40.7933 -112.0973 175° South 249 287 11,000 -353 Level FlightAware ADS-B
Thu 08:04:39 PM 40.7585 -112.0930 175° South 238 274 10,600 -677 Descending FlightAware ADS-B
Thu 08:05:11 PM 40.7249 -112.0888 174° South 210 242 10,300 -409 Descending FlightAware ADS-B
Thu 08:05:23 PM 40.7162 -112.0873 166° South 189 217 10,300 -273 Level FlightAware ADS-B
Thu 08:05:33 PM 40.7069 -112.0818 141° Southeast 172 198 10,200 -429 Descending FlightAware ADS-B
Thu 08:05:37 PM 40.7043 -112.0784 130° Southeast 175 201 10,200 -1,091 Level FlightAware ADS-B (KBTF)
Thu 08:05:44 PM 40.7016 -112.0726 115° Southeast 177 204 10,000 -2,118 Descending FlightAware ADS-B
Thu 08:05:54 PM 40.6995 -112.0623 100° East 180 207 9,600 -2,276 Descending FlightAware ADS-B
Thu 08:06:13 PM 40.6987 -112.0404 90° East 179 206 8,900 -2,053 Descending FlightAware ADS-B
Thu 08:06:32 PM 40.6990 -112.0204 88° East 178 205 8,300 -2,000 Descending FlightAware ADS-B
Thu 08:06:40 PM 40.6993 -112.0118 86° East 176 203 8,000 -2,750 Descending FlightAware ADS-B
Thu 08:06:56 PM 40.7001 -111.9942 89° East 179 206 7,200 -2,743 Descending FlightAware ADS-B (KBTF)
Thu 08:07:15 PM 40.7038 -111.9739 57° Northeast 176 203 6,400 -2,100 Descending FlightAware ADS-B
Thu 08:07:36 PM 40.7164 -111.9635 11° North 149 171 5,800 -1,610 Descending FlightAware ADS-B
Thu 08:07:56 PM 40.7304 -111.9622 North 145 167 5,300 -1,350 Descending FlightAware ADS-B
Thu 08:08:16 PM 40.7434 -111.9621 North 131 151 4,900 -947 Descending FlightAware ADS-B
Thu 08:08:34 PM 40.7548 -111.9622 North 127 146 4,700 -818 Descending FlightAware ADS-B
Thu 08:08:38 PM 40.7577 -111.9622 360° North 132 152 4,600 -818 Descending FlightAware ADS-B (KBTF)
Thu 08:08:56 PM 40.7682 -111.9621 North 129 148 4,400 -615 Descending FlightAware ADS-B
Thu 08:09:17 PM 40.7802 -111.9621 360° North 208 239 4,200 -571 Descending FlightAware ADS-B (KBTF)

Login

Don't have an account? Register now (free) for customized features, flight alerts, and more!